world map with MJT marked

MJT - Airport

This information may not be accurate or current and is not valid for navigation or flight planning. No warranty of fitness for any purpose is made or implied.

flag of Greece

Donate via PayPal

Additional information is available on the NEW Great Circle Mapper

Location
City:  Mytilene, Lesbos Island, Voreío Aigaío (Northern Aegean), Greece
Near (Alt.):Mitilini
ICAO / IATA:LGMT / MJT

Details
Type:Airport (Aerodrome, Airfield)
Latitude:39°03'24"N (39.056667)
Longitude:26°35'54"E (26.598333)
Datum:WGS 1984
Elevation:60 ft (18 m)
Runways:1
Longest:7894 × 148 ft (2406 × 45 m)

Time
Timezone:UTC+2 (DST+5)
Local Time:

Weather
METAR:LGMT  041350Z 00000KT CAVOK 16/10 Q1019
TAF:LGMT  (expired)

Related Locations
Nearby:
Farthest:RVV: 11333 mi / 18239 km
Raivavae, Tubuai Islands, Austral Islands, PF

Find:

   beyond  
but within

Other Information
Maps:
Sources:

  


 


Great Circle Mapper   Great Circle Mapper
Great Circle Mapper FAQ   Great Circle Mapper FAQ
  Karl's Home Page
KLS²   KLS² Home
   GC on Facebook
Airlines of the World   Airlines of the World
Donate via PayPal


Copyright © 2004-2019, Karl L. Swartz. All rights reserved.
All trademarks mentioned herein belong to their respective owners.

Please see credits for attribution and copyright information.

Karl Swartz <karl@kls2.com>
  Powered by FreeBSD
Valid HTML 4.01!
Labeled with ICRA
hCard Microformat
Geo Microformat